Time,TemperatureF,DewpointF,PressureIn,WindDirection,WindDirectionDegrees,WindSpeedMPH,WindSpeedGustMPH,Humidity,HourlyPrecipIn,Conditions,Clouds,dailyrainin,SoftwareType,DateUTC
2013-04-23 00:02:00,70.0,34.0,-100.00,NE,34,10.0,17.0,26,0.00,,,0.00,,2013-04-23 07:02:00,
2013-04-23 00:11:00,70.0,34.0,-100.00,NE,34,10.0,17.0,26,0.00,,,0.00,,2013-04-23 07:11:00,
2013-04-23 00:42:00,67.0,33.0,-100.00,NNE,18,10.0,21.0,28,0.00,,,0.00,,2013-04-23 07:42:00,
2013-04-23 00:52:00,67.0,33.0,-100.00,NNE,18,10.0,21.0,28,0.00,,,0.00,,2013-04-23 07:52:00,
2013-04-23 01:01:00,67.0,33.0,-100.00,NNE,18,10.0,21.0,28,0.00,,,0.00,,2013-04-23 08:01:00,
2013-04-23 01:11:00,67.0,33.0,-100.00,NNE,18,10.0,21.0,28,0.00,,,0.00,,2013-04-23 08:11:00,
2013-04-23 01:42:00,65.0,35.0,-100.00,NE,42,7.0,13.0,33,0.00,,,0.00,,2013-04-23 08:42:00,
2013-04-23 01:52:00,65.0,35.0,-100.00,NE,42,7.0,13.0,33,0.00,,,0.00,,2013-04-23 08:52:00,
2013-04-23 02:01:00,65.0,35.0,-100.00,NE,42,7.0,13.0,33,0.00,,,0.00,,2013-04-23 09:01:00,
2013-04-23 02:11:00,65.0,35.0,-100.00,NE,42,7.0,13.0,33,0.00,,,0.00,,2013-04-23 09:11:00,
2013-04-23 02:43:00,67.0,28.0,-100.00,NE,37,17.0,24.0,23,0.00,,,0.00,,2013-04-23 09:43:00,
2013-04-23 02:53:00,67.0,28.0,-100.00,NE,37,17.0,24.0,23,0.00,,,0.00,,2013-04-23 09:53:00,
2013-04-23 03:02:00,67.0,28.0,-100.00,NE,37,17.0,24.0,23,0.00,,,0.00,,2013-04-23 10:02:00,
2013-04-23 03:12:00,67.0,28.0,-100.00,NE,37,17.0,24.0,23,0.00,,,0.00,,2013-04-23 10:12:00,
2013-04-23 03:42:00,65.0,23.0,-100.00,NNE,32,21.0,30.0,20,0.00,,,0.00,,2013-04-23 10:42:00,
2013-04-23 03:52:00,65.0,23.0,-100.00,NNE,32,21.0,30.0,20,0.00,,,0.00,,2013-04-23 10:52:00,
2013-04-23 04:02:00,65.0,23.0,-100.00,NNE,32,21.0,30.0,20,0.00,,,0.00,,2013-04-23 11:02:00,
2013-04-23 04:12:00,65.0,23.0,-100.00,NNE,32,21.0,30.0,20,0.00,,,0.00,,2013-04-23 11:12:00,
2013-04-23 04:43:00,64.0,22.0,-100.00,NNE,29,24.0,34.0,20,0.00,,,0.00,,2013-04-23 11:43:00,
2013-04-23 04:53:00,64.0,22.0,-100.00,NNE,29,24.0,34.0,20,0.00,,,0.00,,2013-04-23 11:53:00,
2013-04-23 05:02:00,64.0,22.0,-100.00,NNE,29,24.0,34.0,20,0.00,,,0.00,,2013-04-23 12:02:00,
2013-04-23 05:12:00,64.0,22.0,-100.00,NNE,29,24.0,34.0,20,0.00,,,0.00,,2013-04-23 12:12:00,
2013-04-23 05:42:00,62.0,22.0,-100.00,NE,48,22.0,32.0,21,0.00,,,0.00,,2013-04-23 12:42:00,
2013-04-23 05:52:00,62.0,22.0,-100.00,NE,48,22.0,32.0,21,0.00,,,0.00,,2013-04-23 12:52:00,
2013-04-23 06:01:00,62.0,22.0,-100.00,NE,48,22.0,32.0,21,0.00,,,0.00,,2013-04-23 13:01:00,
2013-04-23 06:11:00,62.0,22.0,-100.00,NE,48,22.0,32.0,21,0.00,,,0.00,,2013-04-23 13:11:00,
2013-04-23 06:42:00,61.0,20.0,-100.00,NE,50,22.0,35.0,20,0.00,,,0.00,,2013-04-23 13:42:00,
2013-04-23 06:52:00,61.0,20.0,-100.00,NE,50,22.0,35.0,20,0.00,,,0.00,,2013-04-23 13:52:00,
2013-04-23 07:01:00,61.0,20.0,-100.00,NE,50,22.0,35.0,20,0.00,,,0.00,,2013-04-23 14:01:00,
2013-04-23 07:11:00,61.0,20.0,-100.00,NE,50,22.0,35.0,20,0.00,,,0.00,,2013-04-23 14:11:00,
2013-04-23 07:42:00,60.0,19.0,-100.00,NE,53,20.0,32.0,20,0.00,,,0.00,,2013-04-23 14:42:00,
2013-04-23 07:52:00,60.0,19.0,-100.00,NE,53,20.0,32.0,20,0.00,,,0.00,,2013-04-23 14:52:00,
2013-04-23 08:01:00,60.0,19.0,-100.00,NE,53,20.0,32.0,20,0.00,,,0.00,,2013-04-23 15:01:00,
2013-04-23 08:11:00,60.0,19.0,-100.00,NE,53,20.0,32.0,20,0.00,,,0.00,,2013-04-23 15:11:00,
2013-04-23 08:43:00,62.0,19.0,-100.00,NE,49,22.0,31.0,19,0.00,,,0.00,,2013-04-23 15:43:00,
2013-04-23 08:53:00,62.0,19.0,-100.00,NE,49,22.0,31.0,19,0.00,,,0.00,,2013-04-23 15:53:00,
2013-04-23 09:02:00,62.0,19.0,-100.00,NE,49,22.0,31.0,19,0.00,,,0.00,,2013-04-23 16:02:00,
2013-04-23 09:12:00,62.0,19.0,-100.00,NE,49,22.0,31.0,19,0.00,,,0.00,,2013-04-23 16:12:00,
2013-04-23 09:43:00,64.0,20.0,-100.00,NE,52,22.0,35.0,18,0.00,,,0.00,,2013-04-23 16:43:00,
2013-04-23 09:53:00,64.0,20.0,-100.00,NE,52,22.0,35.0,18,0.00,,,0.00,,2013-04-23 16:53:00,
2013-04-23 10:02:00,64.0,20.0,-100.00,NE,52,22.0,35.0,18,0.00,,,0.00,,2013-04-23 17:02:00,
2013-04-23 10:11:00,64.0,20.0,-100.00,NE,52,22.0,35.0,18,0.00,,,0.00,,2013-04-23 17:11:00,
2013-04-23 10:33:00,65.0,20.0,-100.00,NNE,28,26.0,38.0,18,0.00,,,0.00,,2013-04-23 17:33:00,
2013-04-23 10:43:00,65.0,20.0,-100.00,NNE,28,26.0,38.0,18,0.00,,,0.00,,2013-04-23 17:43:00,
2013-04-23 10:53:00,65.0,20.0,-100.00,NNE,28,26.0,38.0,18,0.00,,,0.00,,2013-04-23 17:53:00,
2013-04-23 11:02:00,65.0,20.0,-100.00,NNE,28,26.0,38.0,18,0.00,,,0.00,,2013-04-23 18:02:00,
2013-04-23 11:12:00,65.0,20.0,-100.00,NNE,28,26.0,38.0,18,0.00,,,0.00,,2013-04-23 18:12:00,
2013-04-23 11:42:00,68.0,20.0,-100.00,NNE,22,16.0,34.0,16,0.00,,,0.00,,2013-04-23 18:42:00,
2013-04-23 11:52:00,68.0,20.0,-100.00,NNE,22,16.0,34.0,16,0.00,,,0.00,,2013-04-23 18:52:00,
2013-04-23 12:02:00,68.0,20.0,-100.00,NNE,22,16.0,34.0,16,0.00,,,0.00,,2013-04-23 19:02:00,
2013-04-23 12:11:00,68.0,20.0,-100.00,NNE,22,16.0,34.0,16,0.00,,,0.00,,2013-04-23 19:11:00,
2013-04-23 12:42:00,71.0,23.0,-100.00,NNE,23,13.0,29.0,16,0.00,,,0.00,,2013-04-23 19:42:00,
2013-04-23 12:52:00,71.0,23.0,-100.00,NNE,23,13.0,29.0,16,0.00,,,0.00,,2013-04-23 19:52:00,
2013-04-23 13:01:00,71.0,23.0,-100.00,NNE,23,13.0,29.0,16,0.00,,,0.00,,2013-04-23 20:01:00,
2013-04-23 13:11:00,71.0,23.0,-100.00,NNE,23,13.0,29.0,16,0.00,,,0.00,,2013-04-23 20:11:00,
2013-04-23 13:42:00,74.0,23.0,-100.00,NNE,23,9.0,22.0,15,0.00,,,0.00,,2013-04-23 20:42:00,
2013-04-23 13:52:00,74.0,23.0,-100.00,NNE,23,9.0,22.0,15,0.00,,,0.00,,2013-04-23 20:52:00,
2013-04-23 14:01:00,74.0,23.0,-100.00,NNE,23,9.0,22.0,15,0.00,,,0.00,,2013-04-23 21:01:00,
2013-04-23 14:11:00,74.0,23.0,-100.00,NNE,23,9.0,22.0,15,0.00,,,0.00,,2013-04-23 21:11:00,
2013-04-23 14:43:00,76.0,25.0,-100.00,North,11,7.0,19.0,15,0.00,,,0.00,,2013-04-23 21:43:00,
2013-04-23 14:52:00,76.0,25.0,-100.00,North,11,7.0,19.0,15,0.00,,,0.00,,2013-04-23 21:52:00,
2013-04-23 15:03:00,76.0,25.0,-100.00,North,11,7.0,19.0,15,0.00,,,0.00,,2013-04-23 22:03:00,
2013-04-23 15:12:00,76.0,25.0,-100.00,North,11,7.0,19.0,15,0.00,,,0.00,,2013-04-23 22:12:00,
2013-04-23 15:42:00,80.0,27.0,-100.00,North,360,4.0,13.0,14,0.00,,,0.00,,2013-04-23 22:42:00,
2013-04-23 15:52:00,80.0,27.0,-100.00,North,360,4.0,13.0,14,0.00,,,0.00,,2013-04-23 22:52:00,
2013-04-23 16:02:00,80.0,27.0,-100.00,North,360,4.0,13.0,14,0.00,,,0.00,,2013-04-23 23:02:00,
2013-04-23 16:12:00,80.0,27.0,-100.00,North,360,4.0,13.0,14,0.00,,,0.00,,2013-04-23 23:12:00,
2013-04-23 16:42:00,77.0,36.0,-100.00,WSW,244,11.0,17.0,23,0.00,,,0.00,,2013-04-23 23:42:00,
2013-04-23 16:52:00,77.0,36.0,-100.00,WSW,244,11.0,17.0,23,0.00,,,0.00,,2013-04-23 23:52:00,
2013-04-23 17:01:00,77.0,36.0,-100.00,WSW,244,11.0,17.0,23,0.00,,,0.00,,2013-04-24 00:01:00,
2013-04-23 17:11:00,77.0,36.0,-100.00,WSW,244,11.0,17.0,23,0.00,,,0.00,,2013-04-24 00:11:00,
2013-04-23 17:42:00,73.0,38.0,-100.00,WSW,245,16.0,23.0,28,0.00,,,0.00,,2013-04-24 00:42:00,
2013-04-23 17:52:00,73.0,38.0,-100.00,WSW,245,16.0,23.0,28,0.00,,,0.00,,2013-04-24 00:52:00,
2013-04-23 18:01:00,73.0,38.0,-100.00,WSW,245,16.0,23.0,28,0.00,,,0.00,,2013-04-24 01:01:00,
2013-04-23 18:11:00,73.0,38.0,-100.00,WSW,245,16.0,23.0,28,0.00,,,0.00,,2013-04-24 01:11:00,
2013-04-23 18:43:00,71.0,37.0,-100.00,WSW,240,13.0,21.0,29,0.00,,,0.00,,2013-04-24 01:43:00,
2013-04-23 18:52:00,71.0,37.0,-100.00,WSW,240,13.0,21.0,29,0.00,,,0.00,,2013-04-24 01:52:00,
2013-04-23 19:02:00,71.0,37.0,-100.00,WSW,240,13.0,21.0,29,0.00,,,0.00,,2013-04-24 02:02:00,
2013-04-23 19:12:00,71.0,37.0,-100.00,WSW,240,13.0,21.0,29,0.00,,,0.00,,2013-04-24 02:12:00,
2013-04-23 20:04:00,67.0,40.0,-100.00,WSW,250,13.0,17.0,37,0.00,,,0.00,,2013-04-24 03:04:00,
2013-04-23 20:12:00,67.0,40.0,-100.00,WSW,250,13.0,17.0,37,0.00,,,0.00,,2013-04-24 03:12:00,
2013-04-23 20:53:00,64.0,34.0,-100.00,SW,225,10.0,17.0,33,0.00,,,0.00,,2013-04-24 03:53:00,
2013-04-23 21:02:00,64.0,34.0,-100.00,SW,225,10.0,17.0,33,0.00,,,0.00,,2013-04-24 04:02:00,
2013-04-23 21:12:00,64.0,34.0,-100.00,SW,225,10.0,17.0,33,0.00,,,0.00,,2013-04-24 04:12:00,
2013-04-23 21:43:00,62.0,39.0,-100.00,SSW,213,8.0,14.0,42,0.00,,,0.00,,2013-04-24 04:43:00,
2013-04-23 21:53:00,62.0,39.0,-100.00,SSW,213,8.0,14.0,42,0.00,,,0.00,,2013-04-24 04:53:00,
2013-04-23 22:02:00,62.0,39.0,-100.00,SSW,213,8.0,14.0,42,0.00,,,0.00,,2013-04-24 05:02:00,
2013-04-23 22:12:00,62.0,39.0,-100.00,SSW,213,8.0,14.0,42,0.00,,,0.00,,2013-04-24 05:12:00,
2013-04-23 22:42:00,60.0,41.0,-100.00,South,180,10.0,35.0,49,0.00,,,0.00,,2013-04-24 05:42:00,
2013-04-23 22:52:00,60.0,41.0,-100.00,South,180,10.0,35.0,49,0.00,,,0.00,,2013-04-24 05:52:00,
2013-04-23 23:02:00,60.0,41.0,-100.00,South,180,10.0,35.0,49,0.00,,,0.00,,2013-04-24 06:02:00,
2013-04-23 23:11:00,60.0,41.0,-100.00,South,180,10.0,35.0,49,0.00,,,0.00,,2013-04-24 06:11:00,
2013-04-23 23:42:00,56.0,43.0,-100.00,SSW,210,5.0,32.0,61,0.00,,,0.00,,2013-04-24 06:42:00,
2013-04-23 23:52:00,56.0,43.0,-100.00,SSW,210,5.0,32.0,61,0.00,,,0.00,,2013-04-24 06:52:00,